Time;durP1;ratioP1;P1;durP2;ratioP2;P2;SDS_P1;SDS_P2;PMS_P1;PMS_P2;Temp;Humidity;BMP_temperature;BMP_pressure;BME280_temperature;BME280_humidity;BME280_pressure;Samples;Min_cycle;Max_cycle;Signal;HPM_P1;HPM_P2
2022/09/18 00:01:00;;;;;;;21.35;11.60;;;;;;;10.97;100.00;98441.84;5116911;28;20426;-75
2022/09/18 00:03:35;;;;;;;;;;;;;;;11.01;100.00;98434.34;5134776;27;20058;-76
2022/09/18 00:06:07;;;;;;;18.88;11.57;;;;;;;11.02;100.00;98434.25;5128479;27;19941;-74
2022/09/18 00:08:34;;;;;;;18.75;11.55;;;;;;;11.00;100.00;98420.00;5114261;28;20043;-76
2022/09/18 00:11:04;;;;;;;20.00;12.20;;;;;;;10.99;100.00;98423.69;5113221;28;20052;-76
2022/09/18 00:13:33;;;;;;;21.27;12.73;;;;;;;11.02;100.00;98422.59;5113660;28;20078;-74
2022/09/18 00:16:01;;;;;;;24.40;12.68;;;;;;;11.06;100.00;98426.75;5112957;28;20039;-75
2022/09/18 00:18:29;;;;;;;20.98;11.85;;;;;;;10.97;100.00;98428.34;5113488;27;20040;-75
2022/09/18 00:21:02;;;;;;;24.15;12.82;;;;;;;10.97;100.00;98428.34;5110961;28;20105;-76
2022/09/18 00:23:29;;;;;;;23.52;12.70;;;;;;;10.95;100.00;98424.03;5113311;28;20054;-75
2022/09/18 00:25:57;;;;;;;22.98;12.77;;;;;;;10.96;100.00;98423.94;5113430;28;20035;-75
2022/09/18 00:28:25;;;;;;;21.13;12.77;;;;;;;10.96;100.00;98423.94;5113112;28;20051;-74
2022/09/18 00:30:54;;;;;;;25.52;12.75;;;;;;;11.05;100.00;98421.47;5123089;27;20370;-76
2022/09/18 00:33:21;;;;;;;21.92;12.95;;;;;;;11.04;100.00;98417.03;5092734;28;20052;-75
2022/09/18 00:35:49;;;;;;;22.80;13.43;;;;;;;10.93;100.00;98418.78;5094693;28;20043;-76
2022/09/18 00:38:16;;;;;;;21.52;12.65;;;;;;;11.00;100.00;98421.81;5104327;28;20052;-76
2022/09/18 00:40:44;;;;;;;22.92;13.30;;;;;;;11.04;100.00;98417.03;5117105;28;20044;-76
2022/09/18 00:43:22;;;;;;;24.42;13.60;;;;;;;11.08;100.00;98416.69;5116421;27;20101;-76
2022/09/18 00:45:54;;;;;;;23.13;13.00;;;;;;;11.04;100.00;98407.13;5134561;27;20043;-76
2022/09/18 00:48:23;;;;;;;24.25;13.55;;;;;;;11.03;100.00;98405.41;5137968;27;20047;-76
2022/09/18 00:50:50;;;;;;;25.85;14.43;;;;;;;10.97;100.00;98406.75;5137569;27;20441;-76
2022/09/18 00:53:18;;;;;;;26.90;14.35;;;;;;;10.99;100.00;98399.38;5125942;27;20047;-76
2022/09/18 00:55:46;;;;;;;22.35;13.57;;;;;;;10.97;100.00;98390.53;5116986;28;20040;-74
2022/09/18 00:58:13;;;;;;;22.85;13.38;;;;;;;10.99;100.00;98399.38;5131335;27;20050;-74
2022/09/18 01:00:41;;;;;;;23.77;13.18;;;;;;;10.97;100.00;98403.16;5137431;27;20043;-74
2022/09/18 01:03:10;;;;;;;24.33;13.70;;;;;;;11.01;100.00;98396.53;5135324;27;20031;-74
2022/09/18 01:05:47;;;;;;;22.75;13.98;;;;;;;11.05;100.00;98403.44;5121505;27;20403;-75
2022/09/18 01:08:24;;;;;;;22.75;13.65;;;;;;;10.96;100.00;98404.16;5116494;28;20492;-74
2022/09/18 01:11:01;;;;;;;25.95;14.45;;;;;;;10.99;100.00;98404.78;5117563;27;20043;-74
2022/09/18 01:13:30;;;;;;;;;;;;;;;11.06;100.00;98390.75;5115634;28;20052;-75
2022/09/18 01:16:03;;;;;;;22.00;13.10;;;;;;;10.96;100.00;98396.03;5115615;28;19919;-75
2022/09/18 01:18:40;;;;;;;26.70;13.95;;;;;;;10.99;100.00;98388.56;5117557;28;20047;-74
2022/09/18 01:21:10;;;;;;;22.60;13.32;;;;;;;10.96;100.00;98390.63;5117350;28;20104;-74
2022/09/18 01:24:03;;;;;;;20.17;12.07;;;;;;;10.96;100.00;98380.72;5115585;28;20035;-74
2022/09/18 01:26:50;;;;;;;21.60;12.90;;;;;;;10.96;100.00;98378.00;5118104;27;20051;-74
2022/09/18 01:29:25;;;;;;;20.50;12.75;;;;;;;11.00;100.00;98376.78;5117132;28;20123;-76
2022/09/18 01:31:57;;;;;;;22.70;12.15;;;;;;;10.94;100.00;98376.41;5133879;27;20043;-75
2022/09/18 01:34:30;;;;;;;20.92;12.38;;;;;;;11.01;100.00;98361.41;5138285;27;20484;-75
2022/09/18 01:37:03;;;;;;;21.60;12.95;;;;;;;10.92;100.00;98354.94;5121694;27;20044;-74
2022/09/18 01:39:36;;;;;;;19.45;11.77;;;;;;;10.92;100.00;98352.22;5116847;28;20066;-76
2022/09/18 01:42:05;;;;;;;19.65;11.63;;;;;;;10.92;100.00;98346.84;5116445;27;20451;-73
2022/09/18 01:44:35;;;;;;;22.35;12.07;;;;;;;10.91;100.00;98342.41;5115517;28;20043;-73
2022/09/18 01:47:06;;;;;;;21.65;12.18;;;;;;;10.86;100.00;98341.94;5115691;28;20040;-74
2022/09/18 01:49:38;;;;;;;18.38;11.05;;;;;;;10.82;100.00;98345.88;5115856;27;20096;-74
2022/09/18 01:52:08;;;;;;;20.23;11.43;;;;;;;10.81;100.00;98346.81;5117077;27;20047;-76
2022/09/18 01:54:39;;;;;;;19.23;11.48;;;;;;;10.82;100.00;98340.47;5122683;27;20114;-74
2022/09/18 01:57:10;;;;;;;19.40;11.65;;;;;;;10.85;100.00;98342.91;5117466;28;20044;-73
2022/09/18 01:59:42;;;;;;;20.83;10.82;;;;;;;10.76;100.00;98338.25;5115631;28;20126;-73
2022/09/18 02:02:13;;;;;;;17.95;10.95;;;;;;;10.72;100.00;98335.78;5116144;28;20044;-74
2022/09/18 02:04:42;;;;;;;17.67;11.35;;;;;;;10.79;100.00;98338.00;5115879;28;20096;-75
2022/09/18 02:07:14;;;;;;;18.70;11.02;;;;;;;10.75;100.00;98337.41;5115514;28;20044;-74
2022/09/18 02:09:42;;;;;;;19.67;11.43;;;;;;;10.79;100.00;98333.47;5115505;28;20043;-74
2022/09/18 02:12:12;;;;;;;17.98;10.63;;;;;;;10.84;100.00;98336.63;5114994;28;20043;-76
2022/09/18 02:14:43;;;;;;;19.77;11.35;;;;;;;10.86;100.00;98331.13;5126700;27;20051;-75
2022/09/18 02:17:16;;;;;;;19.08;10.77;;;;;;;10.90;100.00;98335.28;5114465;28;20047;-75
2022/09/18 02:19:45;;;;;;;19.60;11.52;;;;;;;10.91;100.00;98334.31;5114671;27;20044;-73
2022/09/18 02:22:16;;;;;;;18.80;11.20;;;;;;;10.89;100.00;98341.69;5115296;28;20497;-75
2022/09/18 02:24:46;;;;;;;21.02;11.50;;;;;;;10.82;100.00;98335.06;5115980;28;20050;-76
2022/09/18 02:27:14;;;;;;;19.70;10.93;;;;;;;10.79;100.00;98341.56;5114716;28;20096;-74
2022/09/18 02:29:44;;;;;;;19.73;10.85;;;;;;;10.79;100.00;98346.97;5115066;28;20044;-74
2022/09/18 02:32:12;;;;;;;18.73;11.35;;;;;;;10.73;100.00;98342.06;5122119;27;20045;-76
2022/09/18 02:34:40;;;;;;;18.38;11.40;;;;;;;10.69;100.00;98346.00;5134982;27;20092;-73
2022/09/18 02:37:27;;;;;;;19.38;11.68;;;;;;;10.81;100.00;98346.81;5126840;27;20386;-74
2022/09/18 02:40:05;;;;;;;18.58;10.93;;;;;;;10.78;100.00;98356.06;5095990;28;20497;-74
2022/09/18 02:42:40;;;;;;;19.02;11.05;;;;;;;10.79;100.00;98354.19;5119427;27;20092;-73
2022/09/18 02:45:14;;;;;;;19.67;11.48;;;;;;;10.75;100.00;98353.59;5136911;27;20047;-76
2022/09/18 02:47:52;;;;;;;24.83;12.10;;;;;;;10.72;100.00;98349.28;5132355;27;20043;-74
2022/09/18 02:50:27;;;;;;;18.90;10.35;;;;;;;10.72;100.00;98349.28;5115233;27;20047;-73
2022/09/18 02:52:59;;;;;;;20.38;11.77;;;;;;;10.68;100.00;98347.81;5114254;28;20041;-76
2022/09/18 02:55:30;;;;;;;23.17;11.75;;;;;;;10.71;100.00;98346.72;5114244;28;20448;-74
2022/09/18 02:57:59;;;;;;;21.15;10.90;;;;;;;10.68;100.00;98338.88;5113470;28;20044;-74
2022/09/18 03:00:30;;;;;;;18.15;11.13;;;;;;;10.69;100.00;98348.69;5114434;28;20047;-75
2022/09/18 03:02:58;;;;;;;18.45;11.18;;;;;;;10.68;100.00;98337.03;5124200;27;20039;-74
2022/09/18 03:05:26;;;;;;;22.23;12.45;;;;;;;10.70;100.00;98340.47;5125058;27;20047;-74
2022/09/18 03:07:56;;;;;;;20.90;12.20;;;;;;;10.77;100.00;98343.53;5114354;28;20051;-75
2022/09/18 03:10:24;;;;;;;20.70;12.45;;;;;;;10.75;100.00;98333.81;5125062;27;20048;-76
2022/09/18 03:12:52;;;;;;;21.13;11.98;;;;;;;10.79;100.00;98335.28;5134347;27;20045;-74
2022/09/18 03:15:21;;;;;;;20.90;11.98;;;;;;;10.77;100.00;98332.72;5129021;27;20036;-76
2022/09/18 03:17:49;;;;;;;21.33;12.35;;;;;;;10.78;100.00;98334.44;5129112;27;20551;-75
2022/09/18 03:20:17;;;;;;;19.63;12.57;;;;;;;10.82;100.00;98335.91;5116103;27;20040;-75
2022/09/18 03:22:45;;;;;;;21.25;12.30;;;;;;;10.84;100.00;98336.63;5111916;28;20046;-74
2022/09/18 03:25:13;;;;;;;25.92;12.93;;;;;;;10.79;100.00;98341.56;5113346;28;20473;-74
2022/09/18 03:27:41;;;;;;;23.30;14.02;;;;;;;10.81;100.00;98330.63;5113256;28;20057;-75
2022/09/18 03:30:10;;;;;;;21.73;12.75;;;;;;;10.83;100.00;98329.53;5115549;27;20039;-76
2022/09/18 03:32:38;;;;;;;20.48;12.25;;;;;;;10.85;100.00;98324.00;5114085;27;20043;-74
2022/09/18 03:35:08;;;;;;;20.83;12.98;;;;;;;10.77;100.00;98331.84;5112792;28;20052;-74
2022/09/18 03:37:35;;;;;;;21.85;12.85;;;;;;;10.88;100.00;98326.47;5112983;28;20488;-76
2022/09/18 03:40:03;;;;;;;23.92;13.00;;;;;;;10.90;100.00;98323.63;5113020;28;20119;-76
2022/09/18 03:42:31;;;;;;;23.20;13.65;;;;;;;10.86;100.00;98323.88;5112217;28;20047;-75
2022/09/18 03:44:59;;;;;;;22.83;13.43;;;;;;;10.82;100.00;98321.56;5122125;27;20442;-74
2022/09/18 03:47:27;;;;;;;21.42;12.93;;;;;;;10.86;100.00;98328.44;5113363;27;21476;-75
2022/09/18 03:49:54;;;;;;;24.88;13.70;;;;;;;10.86;100.00;98321.16;5113581;27;20053;-75
2022/09/18 03:52:23;;;;;;;22.67;13.30;;;;;;;11.00;100.00;98320.03;5125991;27;20092;-75
2022/09/18 03:54:51;;;;;;;25.13;13.73;;;;;;;10.95;100.00;98316.00;5112791;28;20405;-75
2022/09/18 03:57:18;;;;;;;24.77;14.90;;;;;;;10.97;100.00;98323.00;5113391;28;20051;-75
2022/09/18 03:59:46;;;;;;;24.05;13.98;;;;;;;10.97;100.00;98323.00;5113627;28;20048;-74
2022/09/18 04:02:14;;;;;;;26.80;14.18;;;;;;;10.90;100.00;98312.81;5113099;28;20052;-76
2022/09/18 04:04:41;;;;;;;24.90;13.88;;;;;;;10.94;100.00;98315.16;5112956;28;20043;-75
2022/09/18 04:07:09;;;;;;;24.70;14.55;;;;;;;10.93;100.00;98318.84;5131090;28;20047;-76
2022/09/18 04:09:38;;;;;;;26.25;14.43;;;;;;;10.91;100.00;98320.81;5134073;27;20127;-76
2022/09/18 04:12:06;;;;;;;24.70;14.75;;;;;;;10.98;100.00;98322.00;5122337;27;20047;-74
2022/09/18 04:14:34;;;;;;;25.27;14.48;;;;;;;10.99;100.00;98321.03;5129206;27;20124;-76
2022/09/18 04:17:02;;;;;;;27.42;15.55;;;;;;;10.99;100.00;98329.13;5133270;27;20043;-75
2022/09/18 04:19:29;;;;;;;28.25;15.90;;;;;;;10.97;100.00;98325.69;5134206;27;20047;-76
2022/09/18 04:21:57;;;;;;;28.52;16.10;;;;;;;10.97;100.00;98325.69;5117314;28;20554;-74
2022/09/18 04:24:24;;;;;;;27.23;14.88;;;;;;;10.99;100.00;98329.13;5117384;28;20118;-75
2022/09/18 04:26:53;;;;;;;26.95;15.60;;;;;;;11.02;100.00;98331.56;5131909;27;20400;-74
2022/09/18 04:29:21;;;;;;;30.77;17.92;;;;;;;11.07;100.00;98328.50;5137376;27;20130;-75
2022/09/18 04:31:48;;;;;;;31.02;18.08;;;;;;;11.16;100.00;98324.16;5137773;27;20039;-75
2022/09/18 04:34:16;;;;;;;26.90;15.77;;;;;;;11.04;100.00;98319.78;5137450;27;20054;-75
2022/09/18 04:36:43;;;;;;;29.63;15.70;;;;;;;11.05;100.00;98322.38;5124444;27;20043;-74
2022/09/18 04:39:11;;;;;;;27.55;15.52;;;;;;;10.98;100.00;98323.84;5117100;28;20058;-75
2022/09/18 04:41:39;;;;;;;26.05;15.00;;;;;;;10.97;100.00;98323.00;5117130;28;20048;-75
2022/09/18 04:44:08;;;;;;;28.23;15.05;;;;;;;10.99;100.00;98322.84;5116883;27;20035;-76
2022/09/18 04:46:35;;;;;;;27.52;15.10;;;;;;;10.99;100.00;98326.44;5116599;28;20036;-74
2022/09/18 04:49:03;;;;;;;25.65;14.30;;;;;;;10.98;100.00;98322.00;5117289;27;20043;-74
2022/09/18 04:51:31;;;;;;;27.30;15.18;;;;;;;10.97;100.00;98320.28;5116735;28;20489;-74
2022/09/18 04:53:58;;;;;;;27.25;15.50;;;;;;;10.92;100.00;98313.53;5116904;28;20047;-75
2022/09/18 04:56:26;;;;;;;27.98;16.27;;;;;;;10.90;100.00;98315.50;5117823;27;20048;-74
2022/09/18 04:58:54;;;;;;;27.23;15.23;;;;;;;10.88;100.00;98307.56;5116137;28;20512;-74
2022/09/18 05:01:23;;;;;;;27.23;14.95;;;;;;;10.89;100.00;98308.41;5116582;27;20101;-74
2022/09/18 05:03:50;;;;;;;25.80;14.35;;;;;;;10.93;100.00;98310.72;5116773;27;20054;-75
2022/09/18 05:06:18;;;;;;;25.63;14.18;;;;;;;10.94;100.00;98309.75;5116600;28;20052;-76
2022/09/18 05:08:45;;;;;;;25.83;14.60;;;;;;;10.94;100.00;98315.16;5116106;28;20396;-74
2022/09/18 05:11:13;;;;;;;27.20;15.23;;;;;;;10.91;100.00;98320.81;5116400;27;20054;-76
2022/09/18 05:13:42;;;;;;;27.50;14.82;;;;;;;10.88;100.00;98318.34;5115879;27;20554;-75
2022/09/18 05:16:09;;;;;;;23.50;13.43;;;;;;;10.89;100.00;98317.38;5119609;27;20054;-74
2022/09/18 05:18:38;;;;;;;25.65;13.40;;;;;;;10.85;100.00;98315.91;5110804;28;20566;-74
2022/09/18 05:21:07;;;;;;;22.73;13.43;;;;;;;10.83;100.00;98313.31;5112295;28;20039;-73
2022/09/18 05:23:34;;;;;;;29.02;14.48;;;;;;;10.88;100.00;98315.66;5112144;27;20051;-75
2022/09/18 05:26:02;;;;;;;23.13;13.68;;;;;;;10.95;100.00;98322.25;5117057;27;20039;-75
2022/09/18 05:28:30;;;;;;;23.55;13.48;;;;;;;10.99;100.00;98315.63;5132866;27;20051;-74
2022/09/18 05:30:59;;;;;;;25.45;14.02;;;;;;;10.97;100.00;98309.50;5124677;27;20511;-73
2022/09/18 05:33:26;;;;;;;21.92;13.05;;;;;;;10.92;100.00;98317.13;5113960;27;20048;-76
2022/09/18 05:35:56;;;;;;;22.92;12.35;;;;;;;10.96;100.00;98318.56;5112173;28;20487;-76
2022/09/18 05:38:24;;;;;;;24.23;12.77;;;;;;;10.97;100.00;98320.28;5112650;27;20043;-76
2022/09/18 05:40:51;;;;;;;22.20;12.55;;;;;;;11.07;100.00;98323.09;5111869;28;20488;-76
2022/09/18 05:43:19;;;;;;;20.88;12.25;;;;;;;11.00;100.00;98320.03;5112108;28;20108;-75
2022/09/18 05:45:46;;;;;;;19.70;11.82;;;;;;;11.04;100.00;98319.78;5112205;28;20126;-77
2022/09/18 05:48:14;;;;;;;19.02;10.98;;;;;;;11.04;100.00;98315.25;5112275;28;20051;-76
2022/09/18 05:50:42;;;;;;;20.52;11.82;;;;;;;11.06;100.00;98318.69;5112147;27;20473;-77
2022/09/18 05:53:13;;;;;;;21.50;12.15;;;;;;;10.96;100.00;98317.69;5115014;27;20101;-75
2022/09/18 05:55:40;;;;;;;22.15;12.10;;;;;;;10.96;100.00;98323.09;5091751;28;20405;-76
2022/09/18 05:58:12;;;;;;;19.58;11.52;;;;;;;10.95;100.00;98321.38;5109681;28;20812;-76
2022/09/18 06:00:40;;;;;;;19.13;11.88;;;;;;;10.97;100.00;98332.94;5110035;28;20352;-77
2022/09/18 06:03:10;;;;;;;21.15;11.77;;;;;;;10.94;100.00;98331.34;5111294;27;20485;-78
2022/09/18 06:05:39;;;;;;;19.85;11.75;;;;;;;10.98;100.00;98327.41;5111697;27;20100;-77
2022/09/18 06:08:08;;;;;;;20.27;11.02;;;;;;;10.97;100.00;98328.41;5111448;28;20051;-77
2022/09/18 06:10:39;;;;;;;19.38;10.90;;;;;;;11.11;100.00;98329.09;5110652;28;20053;-77
2022/09/18 06:13:08;;;;;;;19.90;11.32;;;;;;;10.94;100.00;98325.94;5111012;28;20047;-79
2022/09/18 06:15:36;;;;;;;21.30;12.15;;;;;;;10.96;100.00;98332.09;5110937;28;20054;-79
2022/09/18 06:18:05;;;;;;;25.23;11.15;;;;;;;11.00;100.00;98330.84;5112261;27;20050;-78
2022/09/18 06:20:33;;;;;;;20.92;10.48;;;;;;;11.01;100.00;98327.16;5113846;27;20111;-78
2022/09/18 06:23:01;;;;;;;20.00;11.35;;;;;;;11.14;100.00;98326.13;5118983;27;20040;-76
2022/09/18 06:25:28;;;;;;;20.80;11.73;;;;;;;11.08;100.00;98326.66;5110192;28;20043;-76
2022/09/18 06:27:59;;;;;;;19.55;11.00;;;;;;;11.04;100.00;98326.06;5111550;27;20117;-79
2022/09/18 06:30:26;;;;;;;18.85;11.20;;;;;;;11.09;100.00;98328.38;5115014;28;20055;-78
2022/09/18 06:32:55;;;;;;;21.98;11.80;;;;;;;11.14;100.00;98326.13;5110304;27;20070;-77
2022/09/18 06:35:23;;;;;;;19.48;11.05;;;;;;;11.14;100.00;98321.59;5109975;28;20126;-75
2022/09/18 06:37:50;;;;;;;19.95;11.77;;;;;;;11.13;100.00;98319.00;5110626;28;20063;-79
2022/09/18 06:40:18;;;;;;;18.73;10.88;;;;;;;11.15;100.00;98322.44;5110919;28;20047;-78
2022/09/18 06:42:46;;;;;;;18.15;10.75;;;;;;;11.13;100.00;98324.41;5119488;27;20043;-78
2022/09/18 06:45:15;;;;;;;16.58;9.68;;;;;;;11.16;100.00;98325.03;5123102;27;20044;-79
2022/09/18 06:47:42;;;;;;;17.50;9.85;;;;;;;11.16;100.00;98324.16;5110632;28;20039;-79
2022/09/18 06:50:11;;;;;;;18.13;10.45;;;;;;;11.21;100.00;98319.22;5110882;28;20044;-79
2022/09/18 06:52:38;;;;;;;18.75;10.52;;;;;;;11.19;100.00;98323.06;5110066;27;20150;-78
2022/09/18 06:55:06;;;;;;;19.33;10.63;;;;;;;11.17;100.00;98320.47;5105787;28;20054;-79
2022/09/18 06:57:34;;;;;;;19.27;10.85;;;;;;;11.21;100.00;98318.38;5109514;28;20112;-74
2022/09/18 07:00:02;;;;;;;20.17;11.38;;;;;;;11.27;100.00;98329.56;5109875;28;20039;-75
2022/09/18 07:02:31;;;;;;;20.13;10.82;;;;;;;11.26;100.00;98324.25;5109755;28;20043;-78
2022/09/18 07:04:59;;;;;;;21.67;11.30;;;;;;;11.25;100.00;98328.81;5109618;27;20036;-77
2022/09/18 07:07:27;;;;;;;20.13;11.00;;;;;;;11.21;100.00;98324.63;5109630;27;20079;-78
2022/09/18 07:09:54;;;;;;;20.75;11.35;;;;;;;11.23;100.00;98324.53;5108915;27;20382;-77
2022/09/18 07:12:22;;;;;;;17.55;9.88;;;;;;;11.19;100.00;98328.47;5103491;28;20089;-76
2022/09/18 07:14:50;;;;;;;19.08;9.85;;;;;;;11.15;100.00;98320.63;5111178;27;20051;-73
2022/09/18 07:17:17;;;;;;;19.83;10.13;;;;;;;11.26;100.00;98327.84;5109496;28;20123;-74
2022/09/18 07:19:47;;;;;;;19.77;10.45;;;;;;;11.27;100.00;98323.28;5107629;28;20047;-78
2022/09/18 07:22:15;;;;;;;18.05;9.07;;;;;;;11.21;100.00;98326.50;5113224;27;20043;-78
2022/09/18 07:24:42;;;;;;;18.40;9.65;;;;;;;11.30;100.00;98325.72;5107082;27;20047;-80
2022/09/18 07:27:10;;;;;;;16.75;9.35;;;;;;;11.37;100.00;98320.66;5106651;27;20067;-78
2022/09/18 07:29:38;;;;;;;18.17;9.52;;;;;;;11.44;100.00;98327.28;5109847;28;20130;-79
2022/09/18 07:32:06;;;;;;;22.52;12.27;;;;;;;11.49;100.00;98332.31;5109840;28;20805;-75
2022/09/18 07:34:34;;;;;;;17.98;9.43;;;;;;;11.54;100.00;98338.19;5109086;28;20043;-77
2022/09/18 07:37:03;;;;;;;16.00;8.35;;;;;;;11.45;100.00;98323.56;5099912;27;20047;-78
2022/09/18 07:39:30;;;;;;;15.43;9.13;;;;;;;11.38;100.00;98327.78;5107109;28;20047;-78
2022/09/18 07:41:58;;;;;;;19.95;10.40;;;;;;;11.52;100.00;98323.94;5108231;28;20077;-74
2022/09/18 07:44:26;;;;;;;19.02;10.32;;;;;;;11.50;100.00;98325.91;5107996;28;20050;-75
2022/09/18 07:46:54;;;;;;;19.52;10.90;;;;;;;11.43;100.00;98326.44;5104340;28;20085;-76
2022/09/18 07:49:22;;;;;;;22.80;12.60;;;;;;;11.47;100.00;98326.16;5108379;28;20148;-76
2022/09/18 07:51:49;;;;;;;21.13;12.70;;;;;;;11.57;100.00;98333.34;5108047;27;20050;-78
2022/09/18 07:54:18;;;;;;;19.40;10.55;;;;;;;11.62;100.00;98332.09;5107851;28;20047;-75
2022/09/18 07:56:46;;;;;;;21.48;13.18;;;;;;;11.70;100.00;98329.63;5107405;28;20663;-78
2022/09/18 07:59:13;;;;;;;19.08;10.95;;;;;;;11.77;100.00;98330.81;5109596;27;20048;-74
2022/09/18 08:01:41;;;;;;;20.92;11.40;;;;;;;11.76;100.00;98331.81;5107900;27;20043;-76
2022/09/18 08:04:09;;;;;;;19.55;10.52;;;;;;;11.65;100.00;98330.00;5108565;27;20504;-79
2022/09/18 08:06:36;;;;;;;19.45;11.40;;;;;;;11.71;100.00;98334.03;5107363;28;20519;-75
2022/09/18 08:09:04;;;;;;;26.23;14.45;;;;;;;11.82;100.00;98320.44;5108049;28;20047;-76
2022/09/18 08:11:33;;;;;;;19.60;10.88;;;;;;;11.78;100.00;98324.41;5107509;27;20043;-78
2022/09/18 08:14:01;;;;;;;21.48;12.18;;;;;;;11.89;100.00;98327.03;5105456;28;20060;-75
2022/09/18 08:16:28;;;;;;;21.45;12.95;;;;;;;11.87;100.00;98331.72;5107876;28;20394;-77
2022/09/18 08:18:57;;;;;;;20.70;12.13;;;;;;;11.78;100.00;98332.53;5111323;27;20047;-74
2022/09/18 08:21:25;;;;;;;22.35;12.50;;;;;;;11.96;100.00;98326.50;5108667;27;20039;-77
2022/09/18 08:23:52;;;;;;;25.88;14.32;;;;;;;11.86;100.00;98331.88;5108134;27;20711;-79
2022/09/18 08:26:21;;;;;;;23.73;13.02;;;;;;;11.86;100.00;98332.72;5109506;27;20069;-78
2022/09/18 08:28:50;;;;;;;29.13;14.07;;;;;;;11.83;100.00;98326.69;5109457;27;20055;-78
2022/09/18 08:31:17;;;;;;;23.75;13.10;;;;;;;12.03;100.00;98327.72;5109028;28;20039;-74
2022/09/18 08:33:45;;;;;;;23.50;14.13;;;;;;;12.05;100.00;98331.19;5104395;28;20043;-80
2022/09/18 08:36:13;;;;;;;21.27;12.70;;;;;;;12.22;100.00;98328.84;5108591;28;20119;-79
2022/09/18 08:38:40;;;;;;;23.58;12.82;;;;;;;12.07;100.00;98331.03;5109813;28;20047;-77
2022/09/18 08:41:20;;;;;;;26.20;15.75;;;;;;;12.01;100.00;98327.88;5108942;28;20065;-79
2022/09/18 08:43:55;;;;;;;23.58;14.20;;;;;;;12.19;100.00;98329.13;5110688;28;20047;-75
2022/09/18 08:46:28;;;;;;;25.25;14.00;;;;;;;12.20;100.00;98325.41;5095368;28;20122;-81
2022/09/18 08:48:59;;;;;;;23.65;13.30;;;;;;;12.02;100.00;98323.31;5109521;28;20079;-77
2022/09/18 08:51:31;;;;;;;24.85;14.30;;;;;;;12.32;100.00;98327.03;5108079;27;20457;-76
2022/09/18 08:54:10;;;;;;;23.88;14.48;;;;;;;12.17;100.00;98321.13;5109376;28;20050;-80
2022/09/18 08:56:39;;;;;;;24.13;14.35;;;;;;;12.13;100.00;98322.38;5111187;28;20067;-80
2022/09/18 08:59:15;;;;;;;24.75;14.13;;;;;;;12.22;100.00;98326.97;5112456;28;20058;-80
2022/09/18 09:01:47;;;;;;;26.17;15.10;;;;;;;12.27;100.00;98323.88;5111076;27;20088;-75
2022/09/18 09:04:18;;;;;;;25.35;14.60;;;;;;;12.28;100.00;98320.19;5112017;27;20055;-79
2022/09/18 09:06:57;;;;;;;24.92;14.70;;;;;;;12.19;100.00;98321.00;5108416;27;20051;-79
2022/09/18 09:09:34;;;;;;;25.13;14.30;;;;;;;12.20;100.00;98325.41;5108882;28;20049;-79
2022/09/18 09:12:08;;;;;;;22.55;12.90;;;;;;;12.35;100.00;98313.22;5114178;27;20443;-80
2022/09/18 09:14:50;;;;;;;23.83;13.43;;;;;;;12.43;100.00;98318.81;5111938;28;20048;-75
2022/09/18 09:17:21;;;;;;;23.23;12.90;;;;;;;12.43;100.00;98321.53;5103276;28;20036;-81
2022/09/18 09:19:54;;;;;;;23.02;13.73;;;;;;;12.58;100.00;98319.31;5124808;27;20107;-82
2022/09/18 09:22:29;;;;;;;72.28;32.13;;;;;;;12.32;100.00;98322.50;5114001;28;20047;-77
2022/09/18 09:25:06;;;;;;;31.15;19.63;;;;;;;12.29;100.00;98322.78;5111669;28;20096;-78
2022/09/18 09:27:38;;;;;;;24.35;13.70;;;;;;;12.42;100.00;98318.97;5112422;28;20100;-76
2022/09/18 09:30:13;;;;;;;29.15;17.10;;;;;;;12.51;100.00;98320.03;5113076;27;20588;-79
2022/09/18 09:32:45;;;;;;;37.22;21.52;;;;;;;12.49;100.00;98320.13;5113282;27;20047;-78
2022/09/18 09:35:22;;;;;;;28.40;17.27;;;;;;;12.45;100.00;98319.56;5112490;27;20074;-82
2022/09/18 09:37:51;;;;;;;22.52;13.50;;;;;;;12.39;100.00;98317.38;5112064;28;20948;-78
2022/09/18 09:40:21;;;;;;;21.05;12.43;;;;;;;12.46;100.00;98323.13;5111635;28;20492;-81
2022/09/18 09:42:52;;;;;;;24.92;14.45;;;;;;;12.49;100.00;98327.41;5112169;27;20044;-81
2022/09/18 09:45:24;;;;;;;32.97;16.00;;;;;;;12.52;100.00;98321.72;5113187;27;20051;-81
2022/09/18 09:47:57;;;;;;;23.27;13.80;;;;;;;12.40;100.00;98329.94;5112892;28;20075;-81
2022/09/18 09:50:40;;;;;;;22.55;13.32;;;;;;;12.44;100.00;98330.53;5113546;28;20047;-81
2022/09/18 09:53:11;;;;;;;23.50;13.27;;;;;;;12.48;100.00;98333.84;5113436;27;20404;-78
2022/09/18 09:55:45;;;;;;;23.35;13.93;;;;;;;12.26;100.00;98330.28;5108408;28;20464;-79
2022/09/18 09:58:16;;;;;;;22.23;13.52;;;;;;;12.36;100.00;98338.47;5098121;28;20048;-80
2022/09/18 10:00:50;;;;;;;24.92;14.15;;;;;;;12.24;100.00;98343.97;5102960;27;20043;-75
2022/09/18 10:03:28;;;;;;;21.40;12.35;;;;;;;12.45;100.00;98343.94;5114739;27;20048;-76
2022/09/18 10:06:02;;;;;;;22.20;12.60;;;;;;;12.38;100.00;98345.44;5112314;27;20054;-81
2022/09/18 10:08:34;;;;;;;22.85;12.35;;;;;;;12.37;100.00;98351.84;5110740;27;20228;-78
2022/09/18 10:11:07;;;;;;;22.02;13.23;;;;;;;12.44;100.00;98350.34;5109265;28;20051;-77
2022/09/18 10:13:39;;;;;;;21.83;12.48;;;;;;;12.41;100.00;98350.59;5110533;28;20059;-76
2022/09/18 10:16:11;;;;;;;22.38;13.38;;;;;;;12.33;100.00;98355.81;5110132;28;20047;-81
2022/09/18 10:18:40;;;;;;;21.70;11.90;;;;;;;12.40;100.00;98351.59;5111334;27;20050;-80
2022/09/18 10:21:11;;;;;;;20.75;12.07;;;;;;;12.57;100.00;98360.09;5110367;27;20424;-77
2022/09/18 10:23:40;;;;;;;23.30;13.98;;;;;;;12.45;100.00;98364.72;5109756;28;20042;-81
2022/09/18 10:26:11;;;;;;;20.98;12.15;;;;;;;12.35;100.00;98370.09;5111122;28;20496;-78
2022/09/18 10:28:39;;;;;;;19.83;11.77;;;;;;;12.56;100.00;98366.50;5112529;27;20103;-81
2022/09/18 10:31:11;;;;;;;20.10;11.27;;;;;;;12.50;100.00;98369.75;5110739;28;20047;-82
2022/09/18 10:33:41;;;;;;;18.98;11.20;;;;;;;12.54;100.00;98373.91;5110045;27;20401;-76
2022/09/18 10:36:18;;;;;;;19.23;10.85;;;;;;;12.51;100.00;98375.03;5096311;28;20142;-80
2022/09/18 10:38:46;;;;;;;24.67;12.15;;;;;;;12.49;100.00;98378.88;5111320;28;20054;-79
2022/09/18 10:41:33;;;;;;;21.10;12.10;;;;;;;12.54;100.00;98374.75;5110768;27;20777;-81
2022/09/18 10:44:06;;;;;;;27.77;16.92;;;;;;;12.74;100.00;98373.00;5100692;28;20040;-81
2022/09/18 10:46:36;;;;;;;24.58;12.43;;;;;;;12.75;100.00;98380.13;5110176;28;20047;-82
2022/09/18 10:49:18;;;;;;;20.05;12.40;;;;;;;12.74;100.00;98378.41;5110771;27;20048;-82
2022/09/18 10:51:46;;;;;;;20.25;9.20;;;;;;;12.83;100.00;98368.59;5112764;27;20043;-79
2022/09/18 10:54:21;;;;;;;18.50;10.38;;;;;;;12.67;100.00;98376.41;5110167;28;20116;-78
2022/09/18 10:56:49;;;;;;;26.02;14.30;;;;;;;12.85;100.00;98373.88;5111374;27;20048;-82
2022/09/18 10:59:34;;;;;;;16.15;8.75;;;;;;;12.89;100.00;98380.75;5110179;28;20756;-82
2022/09/18 11:02:05;;;;;;;16.48;8.60;;;;;;;12.94;100.00;98383.03;5114080;27;20504;-82
2022/09/18 11:04:33;;;;;;;16.20;8.85;;;;;;;12.89;100.00;98380.75;5113730;27;20047;-81
2022/09/18 11:07:06;;;;;;;42.05;23.58;;;;;;;12.88;100.00;98384.47;5113068;27;20504;-78
2022/09/18 11:09:37;;;;;;;18.90;9.75;;;;;;;12.90;100.00;98386.03;5113045;27;20161;-76
2022/09/18 11:12:05;;;;;;;18.67;10.13;;;;;;;12.94;100.00;98386.63;5110875;27;20054;-79
2022/09/18 11:14:39;;;;;;;20.63;10.25;;;;;;;12.90;100.00;98382.47;5110021;28;20074;-78
2022/09/18 11:17:20;;;;;;;15.98;8.68;;;;;;;12.87;100.00;98383.59;5116532;27;20056;-81
2022/09/18 11:19:50;;;;;;;14.27;7.90;;;;;;;12.94;100.00;98383.03;5110144;27;20130;-77
2022/09/18 11:22:33;;;;;;;17.25;8.10;;;;;;;12.81;100.00;98376.03;5110082;28;20435;-79